Time;durP1;ratioP1;P1;durP2;ratioP2;P2;SDS_P1;SDS_P2;PMS_P1;PMS_P2;Temp;Humidity;BMP_temperature;BMP_pressure;BME280_temperature;BME280_humidity;BME280_pressure;Samples;Min_cycle;Max_cycle;Signal;HPM_P1;HPM_P2
2022/04/11 00:01:52;;;;;;;10.33;7.33;;;;;;;6.34;59.52;101895.88;5018344;28;20054;-60
2022/04/11 00:04:17;;;;;;;12.67;8.23;;;;;;;6.33;59.40;101894.22;5028329;28;20025;-59
2022/04/11 00:06:44;;;;;;;11.90;7.83;;;;;;;6.28;59.34;101889.28;5029479;28;20042;-60
2022/04/11 00:09:09;;;;;;;13.90;7.70;;;;;;;6.27;59.67;101890.25;5026404;28;20041;-59
2022/04/11 00:11:34;;;;;;;9.73;8.00;;;;;;;6.25;59.52;101889.53;5030626;28;20064;-60
2022/04/11 00:14:01;;;;;;;13.80;8.40;;;;;;;6.27;59.33;101895.53;5022900;28;20113;-59
2022/04/11 00:16:27;;;;;;;11.60;8.03;;;;;;;6.21;59.58;101882.81;5029520;28;20041;-60
2022/04/11 00:18:52;;;;;;;15.07;7.60;;;;;;;6.20;59.38;101887.25;5024365;28;20076;-60
2022/04/11 00:21:17;;;;;;;11.17;8.80;;;;;;;6.12;59.43;101872.97;5024379;28;20034;-60
2022/04/11 00:23:43;;;;;;;16.33;8.60;;;;;;;6.20;59.32;101886.41;5020488;28;20037;-59
2022/04/11 00:26:08;;;;;;;14.13;8.63;;;;;;;6.19;59.52;101887.34;5029759;28;20104;-60
2022/04/11 00:28:33;;;;;;;12.80;8.77;;;;;;;6.19;59.37;101882.09;5027758;28;20037;-60
2022/04/11 00:30:58;;;;;;;14.67;8.63;;;;;;;6.18;59.21;101878.59;5025810;28;20413;-59
2022/04/11 00:33:24;;;;;;;14.90;9.20;;;;;;;6.19;59.57;101872.38;5023245;28;20091;-60
2022/04/11 00:35:49;;;;;;;11.90;8.63;;;;;;;6.16;59.12;101867.34;5033417;28;20033;-60
2022/04/11 00:38:14;;;;;;;13.67;8.87;;;;;;;6.15;59.03;101864.81;5024859;28;20828;-60
2022/04/11 00:40:39;;;;;;;17.10;9.73;;;;;;;6.15;59.17;101863.03;5027505;28;20029;-60
2022/04/11 00:43:05;;;;;;;14.33;9.50;;;;;;;6.13;59.27;101857.03;5026644;28;20404;-60
2022/04/11 00:45:30;;;;;;;14.53;9.97;;;;;;;6.12;59.21;101854.50;5024516;28;20041;-59
2022/04/11 00:47:55;;;;;;;13.53;9.93;;;;;;;6.10;59.03;101853.78;5021880;28;20033;-59
2022/04/11 00:50:21;;;;;;;15.40;10.07;;;;;;;6.06;59.13;101842.59;5023880;28;20045;-60
2022/04/11 00:52:53;;;;;;;13.97;9.77;;;;;;;6.07;59.00;101846.06;5022065;28;20036;-59
2022/04/11 00:55:21;;;;;;;14.37;9.27;;;;;;;6.04;59.25;101847.16;5025750;28;20401;-60
2022/04/11 00:57:47;;;;;;;12.73;10.13;;;;;;;6.01;59.32;101844.75;5022141;28;20061;-60
2022/04/11 01:00:13;;;;;;;13.10;10.03;;;;;;;6.00;59.31;101843.06;5021590;28;20400;-60
2022/04/11 01:02:39;;;;;;;13.20;10.57;;;;;;;5.98;59.10;101842.34;5023528;28;20083;-58
2022/04/11 01:05:08;;;;;;;12.80;10.77;;;;;;;6.00;59.22;101842.25;5023389;28;20436;-59
2022/04/11 01:07:38;;;;;;;14.35;10.80;;;;;;;6.01;59.40;101838.63;5025655;28;20025;-60
2022/04/11 01:10:08;;;;;;;14.13;10.70;;;;;;;5.96;59.38;101839.00;5024609;28;20108;-59
2022/04/11 01:12:33;;;;;;;12.87;10.83;;;;;;;5.93;59.20;101833.97;5025263;28;20014;-59
2022/04/11 01:14:58;;;;;;;14.00;10.73;;;;;;;5.99;59.68;101840.56;5028425;28;20108;-60
2022/04/11 01:17:35;;;;;;;14.70;10.90;;;;;;;5.99;59.46;101832.66;5024285;28;20030;-60
2022/04/11 01:20:06;;;;;;;16.83;11.30;;;;;;;5.99;59.50;101835.28;5024872;28;20033;-59
2022/04/11 01:22:31;;;;;;;14.40;10.93;;;;;;;5.92;59.96;101823.53;5028395;28;20373;-59
2022/04/11 01:24:57;;;;;;;15.60;10.93;;;;;;;5.98;59.55;101831.81;5024226;28;20026;-60
2022/04/11 01:27:22;;;;;;;16.57;11.30;;;;;;;5.98;59.65;101842.34;5025594;28;20041;-60
2022/04/11 01:29:47;;;;;;;16.53;11.23;;;;;;;5.96;59.46;101835.53;5025273;28;20022;-59
2022/04/11 01:32:13;;;;;;;16.07;11.23;;;;;;;5.95;59.42;101832.03;5025997;28;20096;-60
2022/04/11 01:34:38;;;;;;;17.33;11.47;;;;;;;5.95;59.57;101831.19;5023787;28;20025;-60
2022/04/11 01:37:04;;;;;;;16.07;10.83;;;;;;;5.93;59.89;101831.31;5023706;28;20440;-60
2022/04/11 01:39:29;;;;;;;16.73;11.13;;;;;;;5.92;59.62;101837.56;5021947;28;20064;-60
2022/04/11 01:41:54;;;;;;;15.23;11.33;;;;;;;5.90;59.96;101835.03;5025558;28;20041;-60
2022/04/11 01:44:19;;;;;;;15.50;11.33;;;;;;;5.90;59.83;101835.03;5028071;28;20033;-59
2022/04/11 01:46:46;;;;;;;14.13;10.93;;;;;;;5.92;59.89;101836.72;5021583;28;20021;-60
2022/04/11 01:49:11;;;;;;;14.27;11.43;;;;;;;5.94;60.28;101837.44;5024855;28;20029;-59
2022/04/11 01:51:37;;;;;;;16.13;11.83;;;;;;;5.92;59.83;101828.81;5026124;28;20025;-59
2022/04/11 01:54:02;;;;;;;16.63;11.23;;;;;;;5.92;60.00;101831.44;5023054;28;20484;-59
2022/04/11 01:56:27;;;;;;;15.97;11.97;;;;;;;5.90;60.06;101828.91;5018202;28;20033;-60
2022/04/11 01:58:53;;;;;;;14.83;11.03;;;;;;;5.87;60.20;101826.47;5021336;28;20121;-59
2022/04/11 02:01:18;;;;;;;16.40;11.50;;;;;;;5.87;60.14;101824.69;5025990;28;20802;-60
2022/04/11 02:03:45;;;;;;;15.43;11.57;;;;;;;5.88;60.35;101825.53;5019914;28;20099;-60
2022/04/11 02:06:10;;;;;;;14.07;11.83;;;;;;;5.86;60.42;101823.00;5022820;28;20027;-59
2022/04/11 02:08:35;;;;;;;16.63;10.67;;;;;;;5.86;60.11;101827.44;5019968;28;20435;-60
2022/04/11 02:11:01;;;;;;;19.30;12.07;;;;;;;5.84;60.28;101826.72;5024026;28;20048;-60
2022/04/11 02:13:26;;;;;;;16.40;11.37;;;;;;;5.81;60.38;101821.69;5025081;28;20037;-60
2022/04/11 02:15:51;;;;;;;16.33;12.13;;;;;;;5.82;60.22;101821.56;5021560;28;20017;-59
2022/04/11 02:18:16;;;;;;;15.57;11.93;;;;;;;5.82;60.29;101824.19;5024565;28;20511;-60
2022/04/11 02:20:42;;;;;;;14.97;11.57;;;;;;;5.81;60.38;101819.03;5026374;28;20048;-60
2022/04/11 02:23:07;;;;;;;16.23;11.13;;;;;;;5.78;60.62;101827.16;5025037;28;20033;-60
2022/04/11 02:25:34;;;;;;;14.83;11.80;;;;;;;5.76;60.49;101821.16;5025285;28;20204;-60
2022/04/11 02:28:00;;;;;;;16.70;12.27;;;;;;;5.73;60.35;101822.22;5016779;28;20033;-59
2022/04/11 02:30:26;;;;;;;14.00;11.83;;;;;;;5.72;60.65;101830.25;5025463;28;20497;-60
2022/04/11 02:32:53;;;;;;;19.27;12.00;;;;;;;5.68;60.54;101829.66;5018021;28;20065;-60
2022/04/11 02:35:19;;;;;;;14.77;11.57;;;;;;;5.66;60.54;101826.28;5021839;28;20053;-60
2022/04/11 02:37:45;;;;;;;14.63;11.87;;;;;;;5.66;60.76;101834.19;5018290;28;20084;-60
2022/04/11 02:40:12;;;;;;;16.20;11.50;;;;;;;5.64;60.64;101828.19;5025532;28;20052;-59
2022/04/11 02:42:40;;;;;;;15.27;11.80;;;;;;;5.60;60.78;101829.38;5026492;28;20033;-60
2022/04/11 02:45:07;;;;;;;17.73;12.63;;;;;;;5.57;60.91;101827.00;5026652;28;20025;-59
2022/04/11 02:47:32;;;;;;;16.00;12.30;;;;;;;5.53;61.12;101825.53;5019066;28;20026;-60
2022/04/11 02:49:57;;;;;;;17.03;12.00;;;;;;;5.47;61.30;101820.69;5020640;28;20035;-59
2022/04/11 02:52:22;;;;;;;14.73;12.90;;;;;;;5.46;61.69;101826.91;5024665;28;20076;-60
2022/04/11 02:54:48;;;;;;;16.20;12.50;;;;;;;5.40;62.02;101828.22;5021201;28;20099;-59
2022/04/11 02:57:13;;;;;;;15.93;13.53;;;;;;;5.41;62.04;101826.44;5020966;28;20396;-59
2022/04/11 02:59:38;;;;;;;18.60;13.33;;;;;;;5.39;61.96;101818.63;5015051;28;20117;-60
2022/04/11 03:02:04;;;;;;;19.60;13.20;;;;;;;5.40;62.07;101824.75;5024473;28;20029;-59
2022/04/11 03:04:30;;;;;;;18.33;12.97;;;;;;;5.38;62.27;101816.13;5019084;28;20025;-59
2022/04/11 03:06:56;;;;;;;15.53;12.90;;;;;;;5.37;62.25;101814.44;5020237;28;20037;-60
2022/04/11 03:09:21;;;;;;;18.20;13.07;;;;;;;5.37;62.28;101811.81;5022042;28;20037;-59
2022/04/11 03:11:47;;;;;;;18.07;12.90;;;;;;;5.34;62.09;101812.88;5021015;28;20109;-60
2022/04/11 03:14:12;;;;;;;18.70;12.90;;;;;;;5.35;61.99;101811.09;5025607;28;20068;-60
2022/04/11 03:16:38;;;;;;;16.50;12.90;;;;;;;5.29;62.18;101813.22;5019046;28;20029;-60
2022/04/11 03:19:03;;;;;;;18.80;12.47;;;;;;;5.30;62.51;101803.53;5020248;28;20029;-60
2022/04/11 03:21:29;;;;;;;14.57;11.73;;;;;;;5.21;62.58;101805.03;5018200;28;20052;-60
2022/04/11 03:23:54;;;;;;;15.07;12.03;;;;;;;5.18;62.77;101802.59;5022300;28;20017;-59
2022/04/11 03:26:19;;;;;;;18.13;12.80;;;;;;;5.16;62.86;101801.88;5016010;28;20116;-60
2022/04/11 03:28:44;;;;;;;18.83;12.80;;;;;;;5.15;63.12;101812.53;5024747;28;20503;-59
2022/04/11 03:31:10;;;;;;;15.63;12.57;;;;;;;5.13;62.91;101803.91;5023009;28;20049;-60
2022/04/11 03:33:35;;;;;;;18.03;12.83;;;;;;;5.11;63.01;101806.66;5023945;28;20061;-60
2022/04/11 03:36:00;;;;;;;16.33;13.13;;;;;;;5.00;63.32;101813.66;5021311;28;20413;-59
2022/04/11 03:38:26;;;;;;;20.07;13.93;;;;;;;4.88;63.74;101818.00;5022455;28;20040;-59
2022/04/11 03:40:51;;;;;;;15.93;13.10;;;;;;;4.85;63.89;101811.16;5018832;28;20076;-60
2022/04/11 03:43:16;;;;;;;18.00;13.50;;;;;;;4.85;64.03;101813.78;5021874;28;20497;-60
2022/04/11 03:45:42;;;;;;;15.83;12.77;;;;;;;4.87;64.04;101805.78;5026615;28;20021;-59
2022/04/11 03:48:07;;;;;;;15.13;12.87;;;;;;;4.87;63.84;101811.03;5025332;28;20826;-59
2022/04/11 03:50:32;;;;;;;17.60;13.67;;;;;;;4.86;63.77;101810.19;5020437;28;20049;-60
2022/04/11 03:52:58;;;;;;;17.17;13.57;;;;;;;4.86;63.67;101809.38;5019997;28;20485;-59
2022/04/11 03:55:23;;;;;;;16.70;13.33;;;;;;;4.83;63.88;101809.59;5021915;28;20061;-60
2022/04/11 03:57:49;;;;;;;15.87;13.60;;;;;;;4.83;63.91;101812.22;5023385;28;20501;-60
2022/04/11 04:00:15;;;;;;;18.70;12.83;;;;;;;4.82;63.79;101815.81;5018312;28;20029;-60
2022/04/11 04:02:41;;;;;;;16.37;12.63;;;;;;;4.80;63.85;101815.91;5025015;28;20618;-59
2022/04/11 04:05:08;;;;;;;15.03;13.03;;;;;;;4.77;64.00;101807.41;5029328;28;20029;-59
2022/04/11 04:07:34;;;;;;;17.60;13.27;;;;;;;4.69;64.40;101807.09;5025980;28;20500;-59
2022/04/11 04:09:59;;;;;;;17.43;13.70;;;;;;;4.63;64.31;101806.59;5024840;28;20045;-60
2022/04/11 04:12:24;;;;;;;19.47;13.00;;;;;;;4.57;64.37;101803.53;5026017;28;20108;-59
2022/04/11 04:14:50;;;;;;;19.03;13.57;;;;;;;4.56;64.71;101800.06;5025980;28;20025;-59
2022/04/11 04:17:15;;;;;;;15.43;13.10;;;;;;;4.50;64.74;101804.94;5028272;28;20445;-60
2022/04/11 04:19:41;;;;;;;16.87;13.90;;;;;;;4.41;64.86;101802.94;5029256;28;20013;-60
2022/04/11 04:22:06;;;;;;;19.47;13.73;;;;;;;4.37;64.80;101804.13;5025169;28;20033;-60
2022/04/11 04:24:34;;;;;;;20.43;14.60;;;;;;;4.28;65.15;101790.63;5023786;28;20026;-60
2022/04/11 04:26:59;;;;;;;17.43;13.60;;;;;;;4.24;65.56;101786.53;5027768;28;20371;-60
2022/04/11 04:29:24;;;;;;;18.57;13.30;;;;;;;4.24;65.72;101796.22;5027766;28;20045;-59
2022/04/11 04:31:50;;;;;;;18.00;13.77;;;;;;;4.25;65.58;101784.75;5028820;28;20040;-60
2022/04/11 04:34:15;;;;;;;17.50;13.53;;;;;;;4.24;65.56;101785.69;5025802;28;20666;-60
2022/04/11 04:36:41;;;;;;;21.00;13.83;;;;;;;4.25;65.60;101788.22;5029241;28;20037;-60
2022/04/11 04:39:07;;;;;;;17.77;13.37;;;;;;;4.25;65.60;101787.38;5021301;28;20600;-60
2022/04/11 04:41:32;;;;;;;20.83;13.40;;;;;;;4.28;65.85;101792.44;5025891;28;20068;-60
2022/04/11 04:43:57;;;;;;;18.57;13.13;;;;;;;4.30;65.61;101790.53;5029370;28;20037;-59
2022/04/11 04:46:22;;;;;;;21.20;13.03;;;;;;;4.31;65.82;101789.59;5020471;28;21229;-59
2022/04/11 04:48:48;;;;;;;16.53;13.37;;;;;;;4.30;65.67;101791.38;5027837;28;20055;-59
2022/04/11 04:51:13;;;;;;;17.17;13.13;;;;;;;4.29;65.51;101791.47;5022754;28;20032;-59
2022/04/11 04:53:39;;;;;;;15.10;11.93;;;;;;;4.29;65.64;101786.22;5025443;28;20056;-60
2022/04/11 04:56:04;;;;;;;18.03;13.67;;;;;;;4.28;65.58;101792.44;5024996;28;20400;-59
2022/04/11 04:58:29;;;;;;;19.77;13.07;;;;;;;4.29;65.93;101794.09;5028026;28;20660;-59
2022/04/11 05:00:55;;;;;;;16.83;12.43;;;;;;;4.26;65.84;101784.66;5023060;28;20087;-59
2022/04/11 05:03:20;;;;;;;18.90;13.50;;;;;;;4.25;65.72;101785.59;5020198;28;20029;-59
2022/04/11 05:05:45;;;;;;;21.43;12.90;;;;;;;4.23;65.53;101782.22;5023174;28;20473;-60
2022/04/11 05:08:10;;;;;;;14.40;12.57;;;;;;;4.25;65.75;101784.75;5025938;28;20075;-60
2022/04/11 05:10:36;;;;;;;17.87;12.67;;;;;;;4.24;65.60;101780.44;5022014;28;20026;-60
2022/04/11 05:13:01;;;;;;;18.47;13.43;;;;;;;4.24;65.89;101786.53;5022428;28;20184;-59
2022/04/11 05:15:26;;;;;;;19.37;13.70;;;;;;;4.26;66.05;101782.03;5025331;28;20469;-59
2022/04/11 05:17:53;;;;;;;17.37;13.13;;;;;;;4.27;66.18;101782.84;5027682;28;20079;-59
2022/04/11 05:20:18;;;;;;;22.70;13.37;;;;;;;4.28;66.20;101788.00;5027953;28;20033;-60
2022/04/11 05:22:43;;;;;;;21.33;12.80;;;;;;;4.27;66.24;101783.69;5027915;28;20025;-60
2022/04/11 05:25:09;;;;;;;22.23;13.80;;;;;;;4.28;66.30;101776.66;5028677;28;20034;-60
2022/04/11 05:27:34;;;;;;;17.87;13.57;;;;;;;4.23;66.51;101774.34;5018992;28;20402;-59
2022/04/11 05:29:59;;;;;;;18.20;12.97;;;;;;;4.25;66.49;101775.06;5022570;28;20501;-59
2022/04/11 05:32:24;;;;;;;18.23;13.30;;;;;;;4.26;66.74;101781.19;5017795;28;20306;-60
2022/04/11 05:34:50;;;;;;;19.67;13.53;;;;;;;4.26;66.78;101783.81;5026906;28;20033;-59
2022/04/11 05:37:15;;;;;;;19.93;13.20;;;;;;;4.28;66.88;101782.75;5024774;28;20072;-60
2022/04/11 05:39:41;;;;;;;19.70;13.53;;;;;;;4.29;67.13;101779.16;5022235;28;20026;-59
2022/04/11 05:42:07;;;;;;;16.77;12.60;;;;;;;4.33;67.02;101782.41;5020508;28;20064;-59
2022/04/11 05:44:32;;;;;;;17.17;13.33;;;;;;;4.40;67.14;101781.06;5019635;28;20067;-59
2022/04/11 05:46:58;;;;;;;21.17;12.90;;;;;;;4.46;66.83;101775.38;5017749;28;20083;-60
2022/04/11 05:49:23;;;;;;;17.67;12.43;;;;;;;4.50;66.89;101774.19;5018176;28;20029;-59
2022/04/11 05:51:49;;;;;;;21.27;12.63;;;;;;;4.54;66.72;101778.28;5025825;28;20063;-60
2022/04/11 05:54:14;;;;;;;19.83;12.50;;;;;;;4.56;66.44;101768.50;5020756;28;20037;-60
2022/04/11 05:56:40;;;;;;;17.43;12.40;;;;;;;4.66;66.13;101782.69;5021737;28;20075;-60
2022/04/11 05:59:05;;;;;;;18.40;12.60;;;;;;;4.73;66.21;101784.88;5017890;28;20435;-60
2022/04/11 06:01:31;;;;;;;15.50;11.60;;;;;;;4.81;65.93;101785.19;5019919;28;20036;-60
2022/04/11 06:03:56;;;;;;;18.87;12.80;;;;;;;4.87;65.87;101779.47;5027747;28;20033;-60
2022/04/11 06:06:21;;;;;;;14.90;12.07;;;;;;;4.97;65.92;101775.25;5027422;28;20101;-59
2022/04/11 06:08:47;;;;;;;16.90;11.70;;;;;;;5.03;65.63;101787.09;5025265;28;20036;-59
2022/04/11 06:11:12;;;;;;;19.07;12.13;;;;;;;5.10;65.32;101786.53;5027222;28;20033;-59
2022/04/11 06:13:40;;;;;;;18.13;12.20;;;;;;;5.21;65.32;101789.25;5027394;28;20025;-58
2022/04/11 06:16:06;;;;;;;17.40;11.57;;;;;;;5.25;65.11;101774.06;5027133;28;20068;-59
2022/04/11 06:18:31;;;;;;;16.73;12.27;;;;;;;5.33;65.47;101776.97;5026820;28;20484;-60
2022/04/11 06:20:56;;;;;;;17.53;11.80;;;;;;;5.40;65.06;101780.81;5027509;28;20403;-60
2022/04/11 06:23:21;;;;;;;17.33;11.77;;;;;;;5.50;64.81;101788.88;5027360;28;20098;-60
2022/04/11 06:25:47;;;;;;;17.23;11.87;;;;;;;5.62;64.90;101787.97;5027093;28;20403;-60
2022/04/11 06:28:12;;;;;;;15.50;12.20;;;;;;;5.80;64.75;101789.22;5026247;28;20033;-60
2022/04/11 06:30:37;;;;;;;15.03;11.87;;;;;;;5.93;64.96;101788.31;5022264;28;20018;-60
2022/04/11 06:33:02;;;;;;;18.40;11.23;;;;;;;6.01;64.55;101786.75;5027410;28;20075;-60
2022/04/11 06:35:28;;;;;;;15.97;12.40;;;;;;;6.18;64.45;101782.81;5026707;28;20429;-59
2022/04/11 06:37:53;;;;;;;14.07;11.00;;;;;;;6.14;64.05;101778.75;5027442;28;20273;-59
2022/04/11 06:40:18;;;;;;;17.27;11.33;;;;;;;6.27;64.40;101782.09;5025551;28;20044;-59
2022/04/11 06:42:44;;;;;;;16.63;11.70;;;;;;;6.46;64.74;101781.50;5027297;28;20501;-60
2022/04/11 06:45:09;;;;;;;15.17;11.67;;;;;;;6.59;64.58;101782.19;5026927;28;20503;-59
2022/04/11 06:47:34;;;;;;;15.20;10.80;;;;;;;6.77;64.33;101772.00;5027047;28;20033;-59
2022/04/11 06:50:00;;;;;;;19.20;10.47;;;;;;;6.77;63.70;101779.91;5024427;28;20037;-60
2022/04/11 06:52:25;;;;;;;15.63;10.47;;;;;;;6.78;63.49;101784.22;5026993;28;20112;-60
2022/04/11 06:54:50;;;;;;;13.23;10.53;;;;;;;6.80;63.03;101783.16;5027465;28;20625;-59
2022/04/11 06:57:16;;;;;;;16.40;11.20;;;;;;;6.87;63.26;101791.41;5026263;28;20033;-59
2022/04/11 06:59:41;;;;;;;14.33;10.37;;;;;;;6.92;62.98;101789.22;5026194;28;20035;-60
2022/04/11 07:02:07;;;;;;;14.97;10.97;;;;;;;7.07;63.12;101787.16;5026574;28;20021;-60
2022/04/11 07:04:32;;;;;;;19.47;11.10;;;;;;;7.26;63.61;101797.91;5021718;28;20033;-59
2022/04/11 07:06:57;;;;;;;16.90;10.83;;;;;;;7.32;63.07;101786.84;5026927;28;20033;-59
2022/04/11 07:09:23;;;;;;;14.70;10.43;;;;;;;7.40;63.06;101787.03;5025843;28;20436;-59
2022/04/11 07:11:48;;;;;;;12.63;10.43;;;;;;;7.52;62.71;101784.34;5026798;28;20105;-59
2022/04/11 07:14:13;;;;;;;14.90;9.80;;;;;;;7.56;62.50;101783.13;5026565;28;20087;-59
2022/04/11 07:16:39;;;;;;;16.07;10.03;;;;;;;7.66;62.22;101784.03;5027247;28;20080;-60
2022/04/11 07:19:04;;;;;;;14.23;9.45;;;;;;;7.69;62.31;101779.31;5025904;28;20112;-60
2022/04/11 07:21:29;;;;;;;18.40;9.70;;;;;;;7.72;61.83;101776.41;5027203;28;20404;-59
2022/04/11 07:23:54;;;;;;;13.70;9.27;;;;;;;7.82;61.88;101776.50;5026395;28;20388;-59
2022/04/11 07:26:20;;;;;;;11.77;9.02;;;;;;;7.86;61.52;101767.34;5026465;28;20381;-60
2022/04/11 07:28:47;;;;;;;15.48;9.73;;;;;;;8.03;61.73;101765.88;5025587;28;20025;-59
2022/04/11 07:31:12;;;;;;;15.30;9.57;;;;;;;8.16;61.14;101773.63;5026868;28;20041;-59
2022/04/11 07:33:38;;;;;;;16.67;9.02;;;;;;;8.23;61.25;101767.66;5026096;28;20524;-60
2022/04/11 07:36:03;;;;;;;12.07;8.57;;;;;;;8.36;60.89;101770.09;5031108;28;20032;-60
2022/04/11 07:38:29;;;;;;;10.88;8.60;;;;;;;8.38;60.62;101757.56;5027303;28;20022;-60
2022/04/11 07:40:54;;;;;;;14.27;8.82;;;;;;;8.43;60.63;101757.19;5026530;28;20031;-59
2022/04/11 07:43:19;;;;;;;17.15;8.20;;;;;;;8.47;60.14;101755.94;5026039;28;20069;-60
2022/04/11 07:45:45;;;;;;;15.35;9.18;;;;;;;8.59;60.16;101761.00;5026651;28;20033;-60
2022/04/11 07:48:10;;;;;;;12.18;8.93;;;;;;;8.78;60.27;101754.09;5025355;28;20400;-60
2022/04/11 07:50:35;;;;;;;11.45;8.48;;;;;;;8.85;60.17;101761.34;5028395;28;20040;-60
2022/04/11 07:53:01;;;;;;;13.38;8.20;;;;;;;8.94;59.54;101754.38;5029769;28;20026;-59
2022/04/11 07:55:26;;;;;;;10.75;7.97;;;;;;;9.00;59.43;101753.84;5030722;28;20080;-59
2022/04/11 07:57:53;;;;;;;13.60;8.15;;;;;;;9.15;59.30;101741.84;5029462;28;20628;-59
2022/04/11 08:00:19;;;;;;;13.32;8.95;;;;;;;9.15;58.71;101754.25;5029188;28;20128;-59
2022/04/11 08:02:44;;;;;;;13.23;7.97;;;;;;;9.17;58.81;101749.66;5030195;28;20410;-60
2022/04/11 08:05:10;;;;;;;11.02;8.00;;;;;;;9.25;58.71;101752.44;5023537;28;20037;-60
2022/04/11 08:07:35;;;;;;;10.98;8.30;;;;;;;9.25;58.35;101749.78;5029831;28;20131;-59
2022/04/11 08:10:06;;;;;;;15.35;8.63;;;;;;;9.38;58.05;101753.00;5028691;28;20560;-60
2022/04/11 08:12:32;;;;;;;11.25;8.18;;;;;;;9.46;58.08;101739.88;5024551;28;20117;-60
2022/04/11 08:14:59;;;;;;;12.38;7.82;;;;;;;9.55;58.11;101739.06;5023605;28;20503;-60
2022/04/11 08:17:24;;;;;;;10.30;8.43;;;;;;;9.67;57.76;101736.22;5028786;28;20041;-60
2022/04/11 08:19:50;;;;;;;14.55;8.05;;;;;;;9.69;58.05;101729.81;5029348;28;20064;-59
2022/04/11 08:22:15;;;;;;;14.40;8.20;;;;;;;9.75;57.56;101726.56;5026482;28;20127;-60
2022/04/11 08:24:40;;;;;;;9.18;7.70;;;;;;;9.86;57.66;101728.25;5026801;28;20075;-60
2022/04/11 08:27:06;;;;;;;10.98;7.20;;;;;;;9.84;57.10;101725.72;5029428;28;20025;-60
2022/04/11 08:29:31;;;;;;;18.17;8.02;;;;;;;9.93;56.73;101727.50;5029114;28;20071;-60
2022/04/11 08:31:56;;;;;;;12.68;7.60;;;;;;;10.02;56.86;101736.41;5029086;28;20051;-60
2022/04/11 08:34:21;;;;;;;14.15;7.82;;;;;;;10.13;56.35;101722.16;5029648;28;20033;-60
2022/04/11 08:36:48;;;;;;;12.60;7.45;;;;;;;10.26;56.69;101721.81;5029061;28;20040;-60
2022/04/11 08:39:13;;;;;;;10.75;7.68;;;;;;;10.29;56.35;101724.19;5028665;28;20064;-60
2022/04/11 08:41:39;;;;;;;11.13;7.65;;;;;;;10.23;55.89;101707.88;5028951;28;20088;-60
2022/04/11 08:44:05;;;;;;;12.70;7.38;;;;;;;10.29;55.13;101716.22;5028598;28;20037;-60
2022/04/11 08:46:33;;;;;;;10.75;7.28;;;;;;;10.41;55.54;101720.38;5029700;28;20018;-60
2022/04/11 08:49:00;;;;;;;10.57;7.10;;;;;;;10.40;54.91;101726.63;5029072;28;20060;-60
2022/04/11 08:51:26;;;;;;;11.40;7.35;;;;;;;10.47;55.08;101725.09;5029504;28;20025;-60
2022/04/11 08:53:52;;;;;;;10.63;7.72;;;;;;;10.54;54.67;101715.53;5029522;28;20559;-60
2022/04/11 08:56:17;;;;;;;12.52;7.10;;;;;;;10.54;54.62;101710.22;5028670;28;20030;-59
2022/04/11 08:58:42;;;;;;;11.25;7.10;;;;;;;10.69;54.95;101707.88;5026724;28;20087;-60
2022/04/11 09:01:08;;;;;;;15.48;7.00;;;;;;;10.79;54.64;101704.19;5029060;28;20037;-60
2022/04/11 09:03:33;;;;;;;13.40;6.60;;;;;;;10.87;54.46;101706.09;5026969;28;20396;-60
2022/04/11 09:06:07;;;;;;;11.38;6.40;;;;;;;10.96;53.70;101712.31;5024024;28;20087;-60
2022/04/11 09:08:51;;;;;;;11.68;6.07;;;;;;;11.05;53.24;101719.38;5026644;28;20079;-60
2022/04/11 09:11:36;;;;;;;8.80;5.80;;;;;;;11.11;52.97;101718.78;5028706;28;20098;-59
2022/04/11 09:14:06;;;;;;;10.07;5.70;;;;;;;11.20;53.02;101723.16;5027866;28;20476;-59
2022/04/11 09:16:51;;;;;;;8.65;5.25;;;;;;;11.28;52.16;101717.94;5028718;28;20075;-60
2022/04/11 09:19:29;;;;;;;12.65;5.22;;;;;;;11.27;51.57;101713.56;5019031;28;20444;-60
2022/04/11 09:21:54;;;;;;;9.23;5.22;;;;;;;11.26;51.03;101701.28;5023752;28;20123;-60
2022/04/11 09:24:21;;;;;;;10.10;4.25;;;;;;;11.33;50.49;101701.50;5018725;28;20120;-60
2022/04/11 09:26:47;;;;;;;7.53;4.63;;;;;;;11.49;50.71;101701.63;5017018;28;20481;-60
2022/04/11 09:29:16;;;;;;;9.85;4.53;;;;;;;11.59;49.88;101682.91;5023910;28;20138;-59
2022/04/11 09:31:43;;;;;;;8.43;3.65;;;;;;;11.74;49.43;101689.31;5021286;28;20405;-60
2022/04/11 09:34:27;;;;;;;8.10;3.20;;;;;;;12.00;48.54;101682.19;5017305;28;20398;-60
2022/04/11 09:36:58;;;;;;;6.90;4.15;;;;;;;12.23;48.70;101684.28;5021011;28;20025;-60
2022/04/11 09:39:33;;;;;;;8.10;4.07;;;;;;;12.30;48.41;101680.81;5022666;28;20048;-60
2022/04/11 09:41:58;;;;;;;8.68;3.28;;;;;;;12.41;47.63;101682.31;5023874;28;20035;-60
2022/04/11 09:44:32;;;;;;;10.55;4.35;;;;;;;12.60;47.59;101682.06;5024785;28;20738;-59
2022/04/11 09:46:59;;;;;;;8.98;4.40;;;;;;;12.63;47.40;101681.72;5023457;28;21093;-60
2022/04/11 09:49:26;;;;;;;8.25;4.80;;;;;;;12.60;47.04;101673.22;5023841;28;20044;-60
2022/04/11 09:52:04;;;;;;;9.00;4.75;;;;;;;12.71;47.34;101673.72;5022965;28;20397;-60
2022/04/11 09:54:30;;;;;;;8.95;5.03;;;;;;;12.78;46.08;101673.94;5023248;28;20304;-60
2022/04/11 09:56:58;;;;;;;7.38;4.63;;;;;;;12.66;45.70;101660.06;5020866;28;20211;-60
2022/04/11 09:59:24;;;;;;;7.97;4.00;;;;;;;12.79;46.26;101659.63;5022274;28;20378;-59
2022/04/11 10:01:51;;;;;;;8.65;5.03;;;;;;;12.85;46.09;101652.78;5021721;28;20029;-60
2022/04/11 10:04:18;;;;;;;9.13;3.80;;;;;;;13.09;46.21;101643.97;5019474;28;20505;-60
2022/04/11 10:06:44;;;;;;;6.70;4.65;;;;;;;13.11;46.09;101648.13;5022624;28;20026;-59
2022/04/11 10:09:10;;;;;;;7.07;4.20;;;;;;;13.18;45.23;101650.97;5017705;28;20461;-60
2022/04/11 10:11:35;;;;;;;7.80;4.78;;;;;;;13.22;45.35;101665.66;5020657;28;20033;-60
2022/04/11 10:14:00;;;;;;;6.97;4.68;;;;;;;13.28;44.96;101655.13;5024657;28;20520;-59
2022/04/11 10:16:26;;;;;;;8.38;4.13;;;;;;;13.22;44.99;101653.13;5022864;28;20026;-60
2022/04/11 10:18:59;;;;;;;7.38;4.25;;;;;;;13.41;44.18;101648.47;5019927;28;20189;-59
2022/04/11 10:21:24;;;;;;;7.82;3.33;;;;;;;13.43;43.84;101652.63;5025405;28;20033;-60
2022/04/11 10:23:59;;;;;;;6.53;3.80;;;;;;;13.52;43.18;101640.09;5037244;28;20022;-60
2022/04/11 10:26:39;;;;;;;6.47;3.85;;;;;;;13.51;42.57;101646.44;5027671;28;20528;-60
2022/04/11 10:29:04;;;;;;;8.02;3.63;;;;;;;13.50;41.97;101642.09;5021482;28;20504;-60
2022/04/11 10:31:36;;;;;;;8.75;4.03;;;;;;;13.44;41.97;101638.28;5026906;28;20059;-60
2022/04/11 10:34:01;;;;;;;7.75;4.07;;;;;;;13.66;42.66;101630.56;5022467;28;20034;-60
2022/04/11 10:36:38;;;;;;;12.43;4.07;;;;;;;13.70;42.62;101637.22;5022548;28;20033;-60
2022/04/11 10:39:12;;;;;;;6.03;4.03;;;;;;;13.76;42.30;101637.38;5026584;28;20025;-60
2022/04/11 10:41:56;;;;;;;8.57;4.20;;;;;;;13.69;41.93;101636.38;5017390;28;20103;-60
2022/04/11 10:44:36;;;;;;;10.77;4.10;;;;;;;13.65;42.30;101635.06;5022371;28;20108;-60
2022/04/11 10:47:07;;;;;;;6.43;3.63;;;;;;;13.71;41.98;101609.53;5017899;28;20030;-60
2022/04/11 10:50:12;;;;;;;6.10;3.55;;;;;;;13.76;41.29;101629.34;5026142;28;20075;-60
2022/04/11 10:52:41;;;;;;;7.28;3.60;;;;;;;13.76;41.24;101625.84;5026161;28;20022;-60
2022/04/11 10:55:19;;;;;;;6.60;3.58;;;;;;;13.73;40.79;101615.53;5026692;28;20447;-60
2022/04/11 10:57:59;;;;;;;9.73;3.72;;;;;;;13.79;40.64;101599.63;5026469;28;20101;-60
2022/04/11 11:00:34;;;;;;;8.43;3.85;;;;;;;13.82;40.79;101604.63;5027020;28;20087;-60
2022/04/11 11:03:02;;;;;;;10.32;4.25;;;;;;;13.79;40.90;101617.50;5026365;28;20037;-60
2022/04/11 11:05:29;;;;;;;9.63;4.03;;;;;;;13.85;41.11;101606.94;5025312;28;20568;-60
2022/04/11 11:08:09;;;;;;;10.00;4.20;;;;;;;13.92;41.72;101594.59;5026337;28;20148;-60
2022/04/11 11:10:46;;;;;;;8.23;4.10;;;;;;;14.08;41.51;101571.47;5027179;28;20176;-60
2022/04/11 11:13:36;;;;;;;7.32;3.75;;;;;;;14.21;41.50;101593.94;5026328;28;20492;-60
2022/04/11 11:16:07;;;;;;;7.65;4.00;;;;;;;14.34;41.58;101571.16;5026314;28;20197;-60
2022/04/11 11:18:50;;;;;;;6.22;3.95;;;;;;;14.35;41.22;101567.47;5025998;28;20026;-60